createdAt,value
2023-05-31T00:00:39.959Z,5.70
2023-05-31T00:03:12.627Z,5.53
2023-05-31T00:05:45.194Z,5.30
2023-05-31T00:08:18.187Z,5.47
2023-05-31T00:10:50.750Z,5.10
2023-05-31T00:13:23.814Z,5.30
2023-05-31T00:15:57.325Z,5.53
2023-05-31T00:18:30.262Z,5.12
2023-05-31T00:21:02.783Z,5.40
2023-05-31T00:23:36.433Z,5.37
2023-05-31T00:26:08.910Z,5.47
2023-05-31T00:28:42.369Z,5.85
2023-05-31T00:31:14.915Z,5.47
2023-05-31T00:33:48.057Z,5.17
2023-05-31T00:36:20.689Z,5.40
2023-05-31T00:38:53.112Z,5.53
2023-05-31T00:41:26.635Z,5.40
2023-05-31T00:43:59.135Z,5.22
2023-05-31T00:46:35.170Z,5.72
2023-05-31T00:49:07.682Z,5.85
2023-05-31T00:51:40.373Z,5.92
2023-05-31T00:54:13.366Z,5.55
2023-05-31T00:56:46.260Z,5.80
2023-05-31T00:59:18.659Z,5.70
2023-05-31T01:01:51.645Z,5.75
2023-05-31T01:04:24.362Z,5.87
2023-05-31T01:06:58.213Z,6.10
2023-05-31T01:09:32.278Z,6.12
2023-05-31T01:12:24.473Z,6.47
2023-05-31T01:15:19.798Z,6.15
2023-05-31T01:18:24.976Z,5.80
2023-05-31T01:20:59.355Z,5.12
2023-05-31T01:23:58.488Z,6.78
2023-05-31T01:26:49.869Z,6.25
2023-05-31T01:29:27.204Z,6.25
2023-05-31T01:32:01.701Z,6.65
2023-05-31T01:37:08.245Z,7.08
2023-05-31T01:39:41.587Z,8.45
2023-05-31T01:42:14.630Z,10.82
2023-05-31T01:44:49.482Z,14.73
2023-05-31T01:47:21.933Z,15.37
2023-05-31T01:49:54.783Z,17.82
2023-05-31T01:52:27.522Z,17.98
2023-05-31T01:55:00.082Z,16.87
2023-05-31T01:57:36.050Z,16.65
2023-05-31T02:00:12.048Z,18.57
2023-05-31T02:02:46.787Z,18.77
2023-05-31T02:05:19.249Z,17.02
2023-05-31T02:07:54.787Z,19.10
2023-05-31T02:10:27.486Z,17.73
2023-05-31T02:13:00.132Z,17.37
2023-05-31T02:15:32.845Z,16.67
2023-05-31T02:18:05.685Z,18.50
2023-05-31T02:20:38.808Z,17.73
2023-05-31T02:23:12.018Z,16.30
2023-05-31T02:25:52.507Z,16.65
2023-05-31T02:28:25.505Z,16.17
2023-05-31T02:31:02.756Z,16.82
2023-05-31T02:33:36.073Z,16.48
2023-05-31T02:36:09.425Z,16.87
2023-05-31T02:38:42.500Z,15.28
2023-05-31T02:43:48.717Z,16.27
2023-05-31T02:46:21.877Z,15.78
2023-05-31T02:48:54.572Z,16.20
2023-05-31T02:51:27.532Z,15.23
2023-05-31T02:54:02.734Z,15.50
2023-05-31T02:56:37.500Z,13.83
2023-05-31T02:59:14.275Z,13.08
2023-05-31T03:01:48.754Z,10.68
2023-05-31T03:04:24.069Z,8.33
2023-05-31T03:06:57.409Z,8.40
2023-05-31T03:09:30.162Z,7.55
2023-05-31T03:12:03.976Z,6.97
2023-05-31T03:14:37.652Z,6.08
2023-05-31T03:17:11.051Z,5.87
2023-05-31T03:19:43.550Z,5.30
2023-05-31T03:22:16.933Z,6.42
2023-05-31T03:24:49.736Z,5.60
2023-05-31T03:27:22.933Z,5.70
2023-05-31T03:29:57.135Z,5.00
2023-05-31T03:32:29.841Z,4.60
2023-05-31T03:35:02.372Z,5.40
2023-05-31T03:37:35.148Z,4.87
2023-05-31T03:40:10.665Z,5.83
2023-05-31T03:42:43.287Z,5.10
2023-05-31T03:45:16.077Z,5.22
2023-05-31T03:47:49.013Z,5.40
2023-05-31T03:50:21.686Z,5.28
2023-05-31T03:52:54.160Z,4.85
2023-05-31T03:55:26.794Z,4.10
2023-05-31T03:57:59.533Z,5.40
2023-05-31T04:00:32.537Z,4.97
2023-05-31T04:03:05.923Z,4.85
2023-05-31T04:08:12.709Z,4.40
2023-05-31T04:10:46.290Z,5.03
2023-05-31T04:13:19.276Z,4.65
2023-05-31T04:15:53.005Z,4.10
2023-05-31T04:18:25.842Z,4.05
2023-05-31T04:20:58.594Z,3.75
2023-05-31T04:23:32.561Z,4.45
2023-05-31T04:26:05.349Z,4.42
2023-05-31T04:28:39.386Z,4.05
2023-05-31T04:31:13.028Z,3.95
2023-05-31T04:33:46.238Z,4.12
2023-05-31T04:36:20.273Z,4.55
2023-05-31T04:38:54.921Z,3.62
2023-05-31T04:41:29.895Z,4.15
2023-05-31T04:44:02.778Z,3.87
2023-05-31T04:46:38.022Z,3.80
2023-05-31T04:49:11.165Z,4.25
2023-05-31T04:51:43.784Z,4.37
2023-05-31T04:54:16.485Z,4.00
2023-05-31T04:56:49.526Z,3.98
2023-05-31T04:59:22.322Z,3.95
2023-05-31T05:01:55.308Z,4.28
2023-05-31T05:04:29.004Z,4.12
2023-05-31T05:07:01.688Z,4.33
2023-05-31T05:09:34.556Z,4.30
2023-05-31T05:12:09.695Z,4.03
2023-05-31T05:14:44.125Z,3.83
2023-05-31T05:17:16.697Z,4.10
2023-05-31T05:19:49.265Z,5.05
2023-05-31T05:22:21.980Z,3.50
2023-05-31T05:24:54.781Z,4.10
2023-05-31T05:27:29.831Z,3.95
2023-05-31T05:30:02.375Z,4.17
2023-05-31T05:32:36.189Z,4.15
2023-05-31T05:35:09.795Z,3.75
2023-05-31T05:37:42.489Z,3.50
2023-05-31T05:40:15.744Z,3.17
2023-05-31T05:42:50.300Z,3.90
2023-05-31T05:45:23.433Z,3.60
2023-05-31T05:47:57.461Z,3.30
2023-05-31T05:50:30.217Z,3.33
2023-05-31T05:53:04.593Z,3.37
2023-05-31T05:55:39.246Z,4.00
2023-05-31T05:58:12.471Z,3.75
2023-05-31T06:01:03.289Z,3.08
2023-05-31T06:03:36.356Z,3.65
2023-05-31T06:06:09.653Z,3.17
2023-05-31T06:08:42.464Z,3.42
2023-05-31T06:11:17.013Z,3.37
2023-05-31T06:16:23.890Z,2.85
2023-05-31T06:18:56.603Z,3.20
2023-05-31T06:21:29.325Z,3.20
2023-05-31T06:24:07.048Z,3.50
2023-05-31T06:26:40.723Z,3.25
2023-05-31T06:29:13.662Z,2.95
2023-05-31T06:31:55.703Z,3.70
2023-05-31T06:37:02.971Z,3.70
2023-05-31T06:42:08.537Z,3.47
2023-05-31T06:44:55.466Z,3.85
2023-05-31T06:47:21.039Z,3.62
2023-05-31T06:49:58.286Z,3.58
2023-05-31T06:52:45.256Z,3.37
2023-05-31T06:55:37.240Z,3.40
2023-05-31T06:58:10.888Z,3.20
2023-05-31T07:03:18.532Z,3.50
2023-05-31T07:05:51.998Z,3.75
2023-05-31T07:10:59.503Z,3.30
2023-05-31T07:13:33.117Z,3.35
2023-05-31T07:16:06.076Z,3.40
2023-05-31T07:18:39.055Z,3.37
2023-05-31T07:21:11.676Z,2.98
2023-05-31T07:23:44.234Z,3.45
2023-05-31T07:26:19.852Z,3.50
2023-05-31T07:28:55.186Z,3.35
2023-05-31T07:31:28.900Z,3.27
2023-05-31T07:34:01.939Z,3.00
2023-05-31T07:36:35.733Z,2.80
2023-05-31T07:39:10.253Z,3.37
2023-05-31T07:41:44.360Z,3.12
2023-05-31T07:44:17.769Z,2.60
2023-05-31T07:46:50.375Z,2.92
2023-05-31T07:49:23.381Z,2.87
2023-05-31T07:51:56.086Z,3.15
2023-05-31T07:54:29.184Z,3.22
2023-05-31T07:57:02.057Z,3.05
2023-05-31T07:59:35.027Z,3.05
2023-05-31T08:02:08.301Z,3.25
2023-05-31T08:04:40.829Z,2.98
2023-05-31T08:07:13.968Z,3.27
2023-05-31T08:09:48.743Z,3.93
2023-05-31T08:12:24.668Z,3.17
2023-05-31T08:14:57.201Z,3.02
2023-05-31T08:17:29.700Z,2.65
2023-05-31T08:20:02.485Z,2.62
2023-05-31T08:22:36.879Z,2.50
2023-05-31T08:25:14.397Z,2.50
2023-05-31T08:27:47.406Z,2.92
2023-05-31T08:30:19.841Z,2.80
2023-05-31T08:32:54.660Z,2.98
2023-05-31T08:35:27.632Z,2.65
2023-05-31T08:38:00.965Z,2.58
2023-05-31T08:40:33.865Z,2.12
2023-05-31T08:43:19.525Z,2.42
2023-05-31T08:45:53.322Z,2.62
2023-05-31T08:48:36.920Z,2.52
2023-05-31T08:51:09.534Z,2.90
2023-05-31T08:56:16.729Z,2.92
2023-05-31T08:58:52.401Z,2.55
2023-05-31T09:01:25.281Z,2.80
2023-05-31T09:03:57.960Z,2.55
2023-05-31T09:06:31.284Z,2.15
2023-05-31T09:09:04.704Z,2.33
2023-05-31T09:11:42.279Z,2.47
2023-05-31T09:14:15.519Z,2.27
2023-05-31T09:16:49.240Z,2.25
2023-05-31T09:19:21.838Z,2.22
2023-05-31T09:21:55.125Z,2.00
2023-05-31T09:24:27.824Z,1.57
2023-05-31T09:27:02.287Z,1.70
2023-05-31T09:29:34.890Z,1.77
2023-05-31T09:32:12.027Z,1.85
2023-05-31T09:34:44.918Z,1.55
2023-05-31T09:37:25.213Z,1.50
2023-05-31T09:39:58.881Z,1.67
2023-05-31T09:42:31.562Z,2.12
2023-05-31T09:45:04.473Z,1.60
2023-05-31T09:47:39.859Z,2.02
